createdAt,value
2022-10-12T00:00:49.806Z,11.88
2022-10-12T00:08:25.024Z,11.95
2022-10-12T00:15:58.838Z,12.10
2022-10-12T00:23:35.338Z,11.45
2022-10-12T00:31:10.636Z,11.50
2022-10-12T00:38:45.929Z,10.90
2022-10-12T00:46:23.836Z,10.18
2022-10-12T00:54:03.546Z,11.63
2022-10-12T01:01:38.049Z,11.52
2022-10-12T01:09:13.715Z,11.75
2022-10-12T01:16:55.833Z,11.63
2022-10-12T01:24:53.078Z,11.55
2022-10-12T01:32:33.071Z,11.30
2022-10-12T01:40:13.813Z,11.13
2022-10-12T01:47:52.666Z,12.80
2022-10-12T01:55:39.678Z,11.30
2022-10-12T02:03:21.020Z,11.20
2022-10-12T02:10:58.808Z,11.43
2022-10-12T02:18:36.388Z,11.55
2022-10-12T02:26:10.727Z,11.98
2022-10-12T02:33:51.418Z,12.10
2022-10-12T02:41:31.074Z,11.38
2022-10-12T02:49:07.203Z,12.05
2022-10-12T02:56:44.547Z,12.02
2022-10-12T03:04:20.056Z,11.80
2022-10-12T03:11:53.702Z,12.27
2022-10-12T03:19:28.708Z,12.32
2022-10-12T03:27:02.379Z,11.63
2022-10-12T03:34:37.593Z,11.77
2022-10-12T03:42:11.615Z,11.27
2022-10-12T03:49:46.939Z,11.37
2022-10-12T03:57:20.800Z,10.20
2022-10-12T04:04:55.790Z,11.20
2022-10-12T04:12:29.460Z,12.25
2022-10-12T04:20:05.263Z,10.63
2022-10-12T04:27:39.306Z,10.40
2022-10-12T04:35:14.655Z,10.90
2022-10-12T04:42:48.277Z,10.20
2022-10-12T04:50:26.319Z,9.95
2022-10-12T04:58:02.650Z,11.02
2022-10-12T05:05:37.645Z,8.90
2022-10-12T05:13:11.435Z,10.40
2022-10-12T05:20:46.528Z,9.97
2022-10-12T05:28:20.430Z,10.65
2022-10-12T05:35:56.704Z,9.73
2022-10-12T05:43:30.436Z,11.10
2022-10-12T05:51:05.816Z,10.55
2022-10-12T05:58:39.432Z,9.48
2022-10-12T06:06:14.391Z,10.35
2022-10-12T06:13:47.996Z,9.32
2022-10-12T06:21:38.467Z,9.65
2022-10-12T06:29:12.264Z,9.52
2022-10-12T06:36:47.500Z,9.27
2022-10-12T06:44:22.452Z,8.27
2022-10-12T06:51:57.874Z,9.68
2022-10-12T06:59:31.502Z,9.65
2022-10-12T07:07:06.640Z,9.57
2022-10-12T07:14:40.225Z,7.30
2022-10-12T07:22:15.241Z,7.93
2022-10-12T07:29:49.038Z,7.15
2022-10-12T07:37:24.055Z,7.63
2022-10-12T07:44:57.699Z,6.50
2022-10-12T07:52:33.907Z,5.78
2022-10-12T08:00:09.651Z,6.35
2022-10-12T08:07:44.766Z,3.90
2022-10-12T08:15:18.745Z,4.95
2022-10-12T08:22:55.014Z,3.13
2022-10-12T08:30:29.060Z,3.63
2022-10-12T08:38:04.391Z,2.60
2022-10-12T08:45:49.634Z,2.55
2022-10-12T08:53:29.794Z,1.95
2022-10-12T09:01:17.067Z,2.03
2022-10-12T09:09:03.788Z,1.80
2022-10-12T09:16:43.257Z,1.80
2022-10-12T09:24:20.971Z,1.98
2022-10-12T09:32:23.223Z,2.10
2022-10-12T09:39:59.075Z,1.75
2022-10-12T09:47:34.244Z,1.70
2022-10-12T09:55:28.417Z,2.05
2022-10-12T10:03:03.645Z,2.33
2022-10-12T10:10:38.830Z,1.40
2022-10-12T10:18:26.722Z,1.30
2022-10-12T10:26:08.085Z,1.60
2022-10-12T10:33:42.467Z,1.40
2022-10-12T10:41:19.840Z,1.60
2022-10-12T10:48:58.910Z,1.42
2022-10-12T10:56:33.972Z,1.45
2022-10-12T11:11:48.785Z,1.30
2022-10-12T11:19:31.444Z,1.52
2022-10-12T11:27:13.658Z,1.27
2022-10-12T11:34:52.471Z,1.80
2022-10-12T11:42:32.184Z,1.13
2022-10-12T11:50:14.676Z,2.00
2022-10-12T11:57:51.433Z,1.35
2022-10-12T12:05:25.098Z,1.75
2022-10-12T12:13:22.972Z,1.27
2022-10-12T12:21:05.668Z,1.50
2022-10-12T12:28:43.488Z,1.30
2022-10-12T12:36:29.929Z,1.77
2022-10-12T12:44:06.076Z,1.30
